Time;durP1;ratioP1;P1;durP2;ratioP2;P2;SDS_P1;SDS_P2;PMS_P1;PMS_P2;Temp;Humidity;BMP_temperature;BMP_pressure;BME280_temperature;BME280_humidity;BME280_pressure;Samples;Min_cycle;Max_cycle;Signal;HPM_P1;HPM_P2
2022/10/10 00:02:00;;;;;;;1.92;1.70;;;;;;;;;;5032522;28;20040;-82
2022/10/10 00:04:25;;;;;;;2.38;1.77;;;;;;;;;;5031199;28;20040;-82
2022/10/10 00:06:51;;;;;;;3.22;1.85;;;;;;;;;;5047379;28;20124;-82
2022/10/10 00:09:16;;;;;;;5.95;1.88;;;;;;;;;;5032112;28;20411;-82
2022/10/10 00:11:41;;;;;;;4.03;1.80;;;;;;;;;;5032096;28;20060;-82
2022/10/10 00:14:07;;;;;;;3.20;1.90;;;;;;;;;;5014655;28;20491;-82
2022/10/10 00:16:32;;;;;;;3.10;1.92;;;;;;;;;;5032058;28;20033;-82
2022/10/10 00:18:58;;;;;;;2.22;1.55;;;;;;;;;;5030813;28;20484;-82
2022/10/10 00:21:23;;;;;;;2.13;1.60;;;;;;;;;;5033670;28;20040;-82
2022/10/10 00:23:49;;;;;;;2.00;1.60;;;;;;;;;;5035806;28;20075;-82
2022/10/10 00:26:14;;;;;;;2.22;1.60;;;;;;;;;;5035837;28;20056;-82
2022/10/10 00:28:40;;;;;;;1.35;1.25;;;;;;;;;;5017675;28;20431;-81
2022/10/10 00:31:07;;;;;;;2.22;1.52;;;;;;;;;;5035658;28;20456;-81
2022/10/10 00:33:33;;;;;;;2.50;1.67;;;;;;;;;;5017635;28;20033;-81
2022/10/10 00:35:59;;;;;;;7.72;1.80;;;;;;;;;;5034088;28;20395;-82
2022/10/10 00:38:24;;;;;;;2.75;1.90;;;;;;;;;;5035579;28;20075;-81
2022/10/10 00:40:53;;;;;;;2.58;1.70;;;;;;;;;;5034298;28;20408;-83
2022/10/10 00:43:19;;;;;;;2.00;1.70;;;;;;;;;;5034605;28;20026;-82
2022/10/10 00:45:46;;;;;;;2.67;1.58;;;;;;;;;;5017745;28;20083;-82
2022/10/10 00:48:18;;;;;;;4.97;1.98;;;;;;;;;;5033741;28;20095;-82
2022/10/10 00:50:51;;;;;;;3.75;1.73;;;;;;;;;;5017327;28;20467;-82
2022/10/10 00:53:18;;;;;;;4.72;1.60;;;;;;;;;;5034326;28;20025;-82
2022/10/10 00:55:44;;;;;;;2.35;1.73;;;;;;;;;;5034059;28;20037;-82
2022/10/10 00:58:11;;;;;;;3.40;1.60;;;;;;;;;;5033790;28;20081;-82
2022/10/10 01:00:36;;;;;;;3.42;1.70;;;;;;;;;;5017493;28;20387;-82
2022/10/10 01:03:01;;;;;;;2.97;1.70;;;;;;;;;;5033329;28;20105;-81
2022/10/10 01:05:27;;;;;;;1.60;1.50;;;;;;;;;;5034048;28;20030;-82
2022/10/10 01:07:52;;;;;;;2.40;1.98;;;;;;;;;;5000942;28;20037;-82
2022/10/10 01:10:18;;;;;;;1.90;1.58;;;;;;;;;;5034722;28;20065;-82
2022/10/10 01:13:06;;;;;;;2.67;1.70;;;;;;;;;;5033771;28;20064;-82
2022/10/10 01:15:46;;;;;;;2.47;1.60;;;;;;;;;;5033545;28;20084;-82
2022/10/10 01:18:23;;;;;;;2.88;1.70;;;;;;;;;;5033391;28;20033;-82
2022/10/10 01:21:22;;;;;;;3.53;1.85;;;;;;;;;;5017100;28;20099;-81
2022/10/10 01:24:26;;;;;;;2.47;1.67;;;;;;;;;;5033452;28;20137;-81
2022/10/10 01:27:09;;;;;;;2.22;1.90;;;;;;;;;;5033584;28;20540;-82
2022/10/10 01:29:43;;;;;;;2.75;1.75;;;;;;;;;;5033074;28;20033;-81
2022/10/10 01:32:14;;;;;;;1.85;1.50;;;;;;;;;;5033260;28;20045;-82
2022/10/10 01:34:53;;;;;;;3.20;1.70;;;;;;;;;;5033244;28;20021;-83
2022/10/10 01:37:21;;;;;;;2.15;1.67;;;;;;;;;;5033186;28;20025;-82
2022/10/10 01:40:10;;;;;;;1.98;1.63;;;;;;;;;;5016331;28;20014;-82
2022/10/10 01:42:56;;;;;;;2.92;1.75;;;;;;;;;;5033000;28;20026;-83
2022/10/10 01:45:22;;;;;;;3.50;1.98;;;;;;;;;;5032860;28;20026;-82
2022/10/10 01:47:48;;;;;;;3.38;2.05;;;;;;;;;;5033961;28;20030;-82
2022/10/10 01:50:19;;;;;;;2.47;1.77;;;;;;;;;;5016075;28;20041;-82
2022/10/10 01:53:00;;;;;;;2.38;1.80;;;;;;;;;;5033933;28;20402;-82
2022/10/10 01:55:56;;;;;;;2.22;1.63;;;;;;;;;;5033793;28;20037;-82
2022/10/10 01:58:38;;;;;;;2.30;1.77;;;;;;;;;;5016227;28;20025;-82
2022/10/10 02:01:23;;;;;;;1.70;1.60;;;;;;;;;;5032712;28;20100;-82
2022/10/10 02:04:19;;;;;;;2.03;1.83;;;;;;;;;;5034006;28;20029;-82
2022/10/10 02:06:54;;;;;;;1.75;1.58;;;;;;;;;;5032877;28;20053;-82
2022/10/10 02:09:25;;;;;;;2.00;1.60;;;;;;;;;;5015641;28;20071;-82
2022/10/10 02:11:51;;;;;;;2.45;1.75;;;;;;;;;;5032604;28;20026;-83
2022/10/10 02:14:22;;;;;;;3.30;1.80;;;;;;;;;;5032240;28;20041;-82
2022/10/10 02:16:50;;;;;;;3.00;1.70;;;;;;;;;;5032315;28;20079;-83
2022/10/10 02:19:20;;;;;;;2.15;1.70;;;;;;;;;;5032416;28;20509;-82
2022/10/10 02:21:47;;;;;;;1.83;1.70;;;;;;;;;;5015557;28;20041;-82
2022/10/10 02:24:12;;;;;;;3.30;1.80;;;;;;;;;;5032527;28;20033;-82
2022/10/10 02:26:38;;;;;;;2.45;1.83;;;;;;;;;;5033296;28;20457;-82
2022/10/10 02:29:15;;;;;;;2.65;1.80;;;;;;;;;;5031932;28;20125;-82
2022/10/10 02:31:46;;;;;;;2.17;1.73;;;;;;;;;;5032160;28;20037;-82
2022/10/10 02:34:16;;;;;;;2.60;1.80;;;;;;;;;;5015630;28;20373;-82
2022/10/10 02:36:44;;;;;;;3.00;1.65;;;;;;;;;;5015384;28;20034;-82
2022/10/10 02:39:12;;;;;;;3.38;1.88;;;;;;;;;;5032179;28;20066;-82
2022/10/10 02:41:38;;;;;;;2.55;1.63;;;;;;;;;;5032099;28;20025;-82
2022/10/10 02:44:03;;;;;;;2.28;1.70;;;;;;;;;;5031993;28;20361;-82
2022/10/10 02:46:28;;;;;;;3.25;1.80;;;;;;;;;;5033201;28;20041;-82
2022/10/10 02:48:54;;;;;;;1.90;1.70;;;;;;;;;;5015001;28;20049;-82
2022/10/10 02:51:19;;;;;;;2.20;1.70;;;;;;;;;;5031926;28;20090;-82
2022/10/10 02:53:45;;;;;;;2.70;1.73;;;;;;;;;;5031928;28;20059;-82
2022/10/10 02:56:10;;;;;;;3.42;1.83;;;;;;;;;;5033183;28;20160;-82
2022/10/10 02:58:36;;;;;;;2.10;1.70;;;;;;;;;;5032856;28;20483;-82
2022/10/10 03:01:01;;;;;;;2.38;1.58;;;;;;;;;;5033218;28;20037;-82
2022/10/10 03:03:27;;;;;;;2.05;1.65;;;;;;;;;;5032783;28;20033;-82
2022/10/10 03:05:52;;;;;;;3.72;1.70;;;;;;;;;;5015034;28;20033;-82
2022/10/10 03:08:17;;;;;;;2.40;1.70;;;;;;;;;;5032767;28;20044;-82
2022/10/10 03:11:01;;;;;;;1.92;1.73;;;;;;;;;;5015214;28;20372;-82
2022/10/10 03:13:26;;;;;;;2.40;1.80;;;;;;;;;;4998700;28;20057;-82
2022/10/10 03:15:52;;;;;;;3.35;1.73;;;;;;;;;;5031422;28;20057;-82
2022/10/10 03:18:18;;;;;;;2.25;1.70;;;;;;;;;;5047822;28;20025;-82
2022/10/10 03:20:44;;;;;;;2.25;1.65;;;;;;;;;;5031726;28;20029;-82
2022/10/10 03:23:10;;;;;;;4.60;1.70;;;;;;;;;;5031273;28;20163;-82
2022/10/10 03:25:39;;;;;;;2.03;1.70;;;;;;;;;;5032776;28;20052;-81
2022/10/10 03:28:04;;;;;;;2.45;1.70;;;;;;;;;;5031256;28;20025;-82
2022/10/10 03:30:30;;;;;;;1.90;1.70;;;;;;;;;;5014728;28;20129;-82
2022/10/10 03:32:55;;;;;;;1.60;1.50;;;;;;;;;;5015049;28;20091;-82
2022/10/10 03:35:21;;;;;;;2.40;1.80;;;;;;;;;;5032475;28;20033;-82
2022/10/10 03:37:46;;;;;;;3.83;1.90;;;;;;;;;;5014649;28;20037;-81
2022/10/10 03:40:11;;;;;;;1.95;1.75;;;;;;;;;;5031185;28;20021;-80
2022/10/10 03:42:37;;;;;;;2.00;1.80;;;;;;;;;;5014821;28;20059;-81
2022/10/10 03:45:03;;;;;;;2.50;1.80;;;;;;;;;;5032653;28;20521;-82
2022/10/10 03:47:28;;;;;;;3.50;1.80;;;;;;;;;;5031235;28;20102;-81
2022/10/10 03:49:53;;;;;;;3.83;2.10;;;;;;;;;;5030897;28;20041;-81
2022/10/10 03:52:20;;;;;;;2.67;1.80;;;;;;;;;;5031308;28;20073;-82
2022/10/10 03:54:46;;;;;;;1.90;1.73;;;;;;;;;;5031653;28;20083;-81
2022/10/10 03:57:11;;;;;;;3.25;1.73;;;;;;;;;;5018622;28;20388;-82
2022/10/10 03:59:36;;;;;;;5.13;1.98;;;;;;;;;;5018335;28;20029;-82
2022/10/10 04:02:02;;;;;;;2.08;1.77;;;;;;;;;;5035306;28;20060;-81
2022/10/10 04:04:27;;;;;;;3.10;1.77;;;;;;;;;;5036294;28;20041;-81
2022/10/10 04:06:53;;;;;;;1.60;1.50;;;;;;;;;;5036264;28;20029;-82
2022/10/10 04:09:18;;;;;;;2.33;1.52;;;;;;;;;;5036024;28;20037;-81
2022/10/10 04:11:44;;;;;;;4.43;1.73;;;;;;;;;;5036253;28;20033;-81
2022/10/10 04:14:10;;;;;;;2.83;1.60;;;;;;;;;;5036358;28;20526;-80
2022/10/10 04:16:35;;;;;;;4.18;2.10;;;;;;;;;;5036136;28;20029;-83
2022/10/10 04:19:00;;;;;;;3.95;2.20;;;;;;;;;;5034601;28;20442;-82
2022/10/10 04:21:26;;;;;;;4.22;2.00;;;;;;;;;;5034578;28;20030;-83
2022/10/10 04:23:51;;;;;;;3.75;1.95;;;;;;;;;;5017898;28;20364;-83
2022/10/10 04:26:17;;;;;;;6.00;2.22;;;;;;;;;;5018018;28;20044;-83
2022/10/10 04:28:42;;;;;;;2.72;1.90;;;;;;;;;;5017817;28;20124;-84
2022/10/10 04:31:07;;;;;;;4.88;2.10;;;;;;;;;;5050730;28;20044;-82
2022/10/10 04:33:33;;;;;;;4.00;2.08;;;;;;;;;;5017957;28;20120;-82
2022/10/10 04:35:58;;;;;;;5.88;2.70;;;;;;;;;;5018050;28;20507;-81
2022/10/10 04:38:24;;;;;;;5.57;2.35;;;;;;;;;;5035766;28;20029;-81
2022/10/10 04:40:49;;;;;;;5.75;2.38;;;;;;;;;;5035339;28;20029;-81
2022/10/10 04:43:15;;;;;;;7.15;2.67;;;;;;;;;;5035559;28;20108;-80
2022/10/10 04:45:41;;;;;;;11.00;2.90;;;;;;;;;;5017756;28;20448;-79
2022/10/10 04:48:06;;;;;;;13.60;2.97;;;;;;;;;;5018573;28;20037;-80
2022/10/10 04:50:32;;;;;;;5.68;2.65;;;;;;;;;;5035385;28;20056;-82
2022/10/10 04:52:57;;;;;;;12.65;3.53;;;;;;;;;;5036997;28;20034;-83
2022/10/10 04:55:23;;;;;;;32.15;5.80;;;;;;;;;;5052563;28;20452;-86
2022/10/10 04:57:48;;;;;;;21.25;5.60;;;;;;;;;;5019283;28;20080;-84
2022/10/10 05:00:14;;;;;;;17.70;5.05;;;;;;;;;;5035711;28;20029;-84
2022/10/10 05:02:39;;;;;;;22.23;6.22;;;;;;;;;;5035922;28;20030;-80
2022/10/10 05:05:05;;;;;;;26.17;6.43;;;;;;;;;;5019093;28;20040;-80
2022/10/10 05:07:31;;;;;;;26.73;6.35;;;;;;;;;;5019720;28;20030;-80
2022/10/10 05:09:56;;;;;;;24.75;5.80;;;;;;;;;;5018425;28;20026;-80
2022/10/10 05:12:22;;;;;;;25.38;5.72;;;;;;;;;;5035214;28;20474;-81
2022/10/10 05:14:48;;;;;;;18.27;4.75;;;;;;;;;;5034980;28;20029;-80
2022/10/10 05:17:13;;;;;;;17.00;5.10;;;;;;;;;;5017334;28;20211;-81
2022/10/10 05:19:38;;;;;;;21.67;5.60;;;;;;;;;;5035580;28;20152;-80
2022/10/10 05:22:04;;;;;;;22.10;5.18;;;;;;;;;;5036483;28;20112;-80
2022/10/10 05:24:30;;;;;;;16.42;4.78;;;;;;;;;;5018235;28;20041;-79
2022/10/10 05:26:55;;;;;;;13.02;4.90;;;;;;;;;;5034994;28;20091;-80
2022/10/10 05:29:21;;;;;;;19.63;4.75;;;;;;;;;;5018915;28;20036;-80
2022/10/10 05:31:46;;;;;;;13.30;4.50;;;;;;;;;;5034448;28;20476;-80
2022/10/10 05:34:12;;;;;;;15.82;4.30;;;;;;;;;;5035611;28;20044;-80
2022/10/10 05:36:39;;;;;;;13.88;4.20;;;;;;;;;;5018098;28;20478;-80
2022/10/10 05:39:04;;;;;;;10.18;4.05;;;;;;;;;;5034516;28;20033;-79
2022/10/10 05:41:30;;;;;;;9.73;4.00;;;;;;;;;;5035308;28;20364;-80
2022/10/10 05:43:55;;;;;;;10.23;3.78;;;;;;;;;;5033005;28;20470;-80
2022/10/10 05:46:23;;;;;;;11.55;4.07;;;;;;;;;;5034307;28;20029;-80
2022/10/10 05:48:52;;;;;;;9.38;3.70;;;;;;;;;;5033095;28;20407;-80
2022/10/10 05:51:17;;;;;;;10.00;3.65;;;;;;;;;;5032884;28;20033;-80
2022/10/10 05:53:43;;;;;;;5.88;3.00;;;;;;;;;;5032748;28;20025;-80
2022/10/10 05:56:08;;;;;;;8.27;3.60;;;;;;;;;;5033581;28;20029;-79
2022/10/10 05:58:34;;;;;;;9.48;3.47;;;;;;;;;;5035256;28;20087;-79
2022/10/10 06:01:04;;;;;;;9.73;3.20;;;;;;;;;;5033456;28;20030;-79
2022/10/10 06:03:30;;;;;;;8.40;3.40;;;;;;;;;;5033475;28;20021;-80
2022/10/10 06:05:56;;;;;;;7.18;3.47;;;;;;;;;;5032913;28;20044;-80
2022/10/10 06:08:21;;;;;;;5.43;2.70;;;;;;;;;;5033730;28;20061;-81
2022/10/10 06:10:46;;;;;;;6.82;3.13;;;;;;;;;;5034988;28;20032;-80
2022/10/10 06:13:14;;;;;;;6.88;3.10;;;;;;;;;;5016826;28;20036;-79
2022/10/10 06:15:40;;;;;;;5.97;3.20;;;;;;;;;;5032664;28;20022;-79
2022/10/10 06:18:06;;;;;;;4.75;2.83;;;;;;;;;;5016725;28;20029;-80
2022/10/10 06:20:38;;;;;;;3.70;2.80;;;;;;;;;;5016360;28;20032;-80
2022/10/10 06:23:04;;;;;;;5.03;3.05;;;;;;;;;;5035315;28;20034;-80
2022/10/10 06:25:31;;;;;;;7.75;3.20;;;;;;;;;;5033159;28;20032;-78
2022/10/10 06:27:57;;;;;;;3.97;2.38;;;;;;;;;;5031919;28;20022;-81
2022/10/10 06:30:22;;;;;;;7.22;3.10;;;;;;;;;;5031982;28;20033;-80
2022/10/10 06:32:47;;;;;;;5.90;2.60;;;;;;;;;;4998916;28;20046;-81
2022/10/10 06:35:13;;;;;;;7.05;2.65;;;;;;;;;;5032032;28;20447;-80
2022/10/10 06:37:38;;;;;;;7.63;3.25;;;;;;;;;;5033748;28;20080;-80
2022/10/10 06:40:04;;;;;;;5.78;2.50;;;;;;;;;;5033353;28;20120;-80
2022/10/10 06:42:29;;;;;;;5.65;2.67;;;;;;;;;;5031802;28;20037;-80
2022/10/10 06:44:55;;;;;;;5.28;2.55;;;;;;;;;;5032964;28;20029;-79
2022/10/10 06:47:20;;;;;;;5.70;2.45;;;;;;;;;;5032971;28;20033;-80
2022/10/10 06:49:45;;;;;;;4.72;2.67;;;;;;;;;;5031853;28;20064;-79
2022/10/10 06:52:11;;;;;;;6.65;3.05;;;;;;;;;;5031842;28;20044;-79
2022/10/10 06:54:36;;;;;;;5.75;2.92;;;;;;;;;;5033059;28;20120;-80
2022/10/10 06:57:02;;;;;;;3.75;2.47;;;;;;;;;;5031382;28;20033;-80
2022/10/10 06:59:27;;;;;;;4.70;2.40;;;;;;;;;;5014957;28;20025;-80
2022/10/10 07:01:52;;;;;;;3.42;2.20;;;;;;;;;;5031375;28;20038;-81
2022/10/10 07:04:18;;;;;;;6.60;2.80;;;;;;;;;;5033115;28;20450;-80
2022/10/10 07:06:43;;;;;;;3.55;2.33;;;;;;;;;;5032576;28;20424;-80
2022/10/10 07:09:09;;;;;;;6.53;2.58;;;;;;;;;;5014641;28;20040;-80
2022/10/10 07:11:34;;;;;;;4.05;2.15;;;;;;;;;;5031603;28;20495;-79
2022/10/10 07:14:00;;;;;;;4.38;2.72;;;;;;;;;;5032555;28;20468;-80
2022/10/10 07:16:25;;;;;;;4.22;2.47;;;;;;;;;;5032762;28;20048;-80
2022/10/10 07:18:50;;;;;;;3.53;2.35;;;;;;;;;;5015050;28;20129;-79
2022/10/10 07:21:16;;;;;;;6.07;2.58;;;;;;;;;;5047607;28;20049;-80
2022/10/10 07:23:41;;;;;;;4.45;2.58;;;;;;;;;;5031291;28;20482;-80
2022/10/10 07:26:11;;;;;;;5.97;2.22;;;;;;;;;;5032625;28;20041;-80
2022/10/10 07:28:37;;;;;;;4.35;2.60;;;;;;;;;;5014517;28;20426;-80
2022/10/10 07:31:07;;;;;;;6.13;2.45;;;;;;;;;;5033453;28;20029;-80
2022/10/10 07:33:36;;;;;;;4.38;2.78;;;;;;;;;;5035206;28;20391;-79
2022/10/10 07:36:02;;;;;;;4.50;2.67;;;;;;;;;;5035793;28;20325;-80
2022/10/10 07:38:27;;;;;;;7.25;2.47;;;;;;;;;;5019080;28;20037;-79
2022/10/10 07:40:53;;;;;;;7.13;2.72;;;;;;;;;;5036159;28;20376;-79
2022/10/10 07:43:18;;;;;;;5.55;2.60;;;;;;;;;;5002014;28;20388;-80
2022/10/10 07:45:44;;;;;;;3.95;2.42;;;;;;;;;;5034979;28;20433;-80
2022/10/10 07:48:09;;;;;;;6.03;2.53;;;;;;;;;;5036265;28;20026;-79
2022/10/10 07:50:34;;;;;;;4.97;2.50;;;;;;;;;;5036123;28;20188;-79
2022/10/10 07:53:00;;;;;;;4.20;2.70;;;;;;;;;;5034677;28;20040;-79
2022/10/10 07:55:25;;;;;;;9.52;2.70;;;;;;;;;;5035114;28;20124;-79
2022/10/10 07:57:51;;;;;;;4.10;2.50;;;;;;;;;;5034854;28;20060;-79
2022/10/10 08:00:17;;;;;;;4.32;2.60;;;;;;;;;;5036062;28;20033;-79
2022/10/10 08:02:42;;;;;;;4.38;2.58;;;;;;;;;;5034798;28;20070;-79
2022/10/10 08:05:08;;;;;;;2.83;2.20;;;;;;;;;;5036436;28;20099;-79
2022/10/10 08:07:33;;;;;;;3.17;2.40;;;;;;;;;;5035953;28;20046;-79
2022/10/10 08:09:59;;;;;;;4.13;2.38;;;;;;;;;;5017957;28;20021;-79
2022/10/10 08:12:24;;;;;;;4.85;2.63;;;;;;;;;;5018017;28;20052;-79
2022/10/10 08:14:50;;;;;;;4.40;2.33;;;;;;;;;;5018048;28;20049;-79
2022/10/10 08:17:15;;;;;;;4.55;2.50;;;;;;;;;;5034466;28;20040;-79
2022/10/10 08:19:40;;;;;;;4.40;2.40;;;;;;;;;;5034718;28;20499;-79
2022/10/10 08:22:06;;;;;;;7.93;2.70;;;;;;;;;;5034334;28;20033;-80
2022/10/10 08:24:31;;;;;;;3.90;2.38;;;;;;;;;;5034724;28;20484;-79
2022/10/10 08:26:57;;;;;;;4.55;2.75;;;;;;;;;;5001597;28;20115;-79
2022/10/10 08:29:23;;;;;;;3.83;2.28;;;;;;;;;;5017673;28;20036;-79
2022/10/10 08:31:48;;;;;;;3.83;2.42;;;;;;;;;;5034247;28;20491;-80
2022/10/10 08:34:13;;;;;;;8.57;2.40;;;;;;;;;;5034561;28;20033;-79
2022/10/10 08:36:39;;;;;;;7.40;2.40;;;;;;;;;;5017893;28;20455;-79
2022/10/10 08:39:04;;;;;;;4.70;2.42;;;;;;;;;;5035862;28;20487;-79
2022/10/10 08:41:47;;;;;;;5.65;2.58;;;;;;;;;;5033830;28;20396;-79
2022/10/10 08:44:27;;;;;;;7.45;2.55;;;;;;;;;;5017543;28;20041;-79
2022/10/10 08:46:56;;;;;;;5.47;2.83;;;;;;;;;;5034087;28;20074;-79
2022/10/10 08:49:26;;;;;;;3.47;2.15;;;;;;;;;;5033740;28;20041;-79
2022/10/10 08:51:58;;;;;;;6.10;2.38;;;;;;;;;;5017358;28;20025;-79
2022/10/10 08:54:25;;;;;;;7.05;2.47;;;;;;;;;;5034413;28;20025;-79
2022/10/10 08:56:53;;;;;;;7.22;2.40;;;;;;;;;;5034051;28;20021;-79
2022/10/10 08:59:28;;;;;;;4.38;2.30;;;;;;;;;;5033956;28;20109;-79
2022/10/10 09:02:32;;;;;;;4.43;2.25;;;;;;;;;;5033991;28;20484;-80
2022/10/10 09:04:58;;;;;;;3.85;2.33;;;;;;;;;;5035278;28;20064;-79
2022/10/10 09:07:31;;;;;;;4.32;2.50;;;;;;;;;;5033605;28;20120;-79
2022/10/10 09:10:11;;;;;;;6.10;2.80;;;;;;;;;;5033614;28;20451;-79
2022/10/10 09:12:39;;;;;;;6.70;2.85;;;;;;;;;;5033464;28;20022;-79
2022/10/10 09:15:10;;;;;;;7.88;2.45;;;;;;;;;;5035004;28;20030;-79
2022/10/10 09:18:15;;;;;;;5.78;2.60;;;;;;;;;;5034760;28;20108;-79
2022/10/10 09:20:40;;;;;;;5.97;2.28;;;;;;;;;;5034400;28;20091;-79
2022/10/10 09:23:26;;;;;;;4.50;2.30;;;;;;;;;;5034678;28;20033;-79
2022/10/10 09:26:03;;;;;;;5.60;2.40;;;;;;;;;;5034714;28;20132;-80
2022/10/10 09:28:37;;;;;;;4.35;2.30;;;;;;;;;;5016402;28;20025;-79
2022/10/10 09:31:09;;;;;;;6.70;2.22;;;;;;;;;;5032993;28;20037;-79
2022/10/10 09:33:43;;;;;;;4.93;2.22;;;;;;;;;;5033010;28;20028;-79
2022/10/10 09:36:12;;;;;;;5.32;2.53;;;;;;;;;;5033107;28;20021;-79
2022/10/10 09:38:43;;;;;;;3.55;2.33;;;;;;;;;;5033054;28;20384;-79
2022/10/10 09:41:42;;;;;;;5.93;2.55;;;;;;;;;;5017326;28;20083;-79
2022/10/10 09:44:13;;;;;;;4.93;2.70;;;;;;;;;;5005443;28;20030;-79
2022/10/10 09:46:38;;;;;;;4.70;2.65;;;;;;;;;;5033024;28;20036;-79
2022/10/10 09:49:04;;;;;;;5.82;2.55;;;;;;;;;;5032803;28;20045;-79
2022/10/10 09:51:31;;;;;;;4.28;2.25;;;;;;;;;;5015288;28;20025;-79
2022/10/10 09:53:57;;;;;;;4.95;2.10;;;;;;;;;;5014612;28;20025;-79
2022/10/10 09:56:26;;;;;;;5.95;2.50;;;;;;;;;;5031851;28;20104;-79
2022/10/10 09:58:53;;;;;;;5.18;2.60;;;;;;;;;;5015203;28;20022;-78
2022/10/10 10:01:24;;;;;;;3.85;2.45;;;;;;;;;;5031477;28;20029;-79
2022/10/10 10:04:12;;;;;;;8.20;2.60;;;;;;;;;;5031938;28;20045;-79
2022/10/10 10:06:40;;;;;;;7.85;2.58;;;;;;;;;;5008829;28;20045;-79
2022/10/10 10:09:06;;;;;;;2.35;2.10;;;;;;;;;;5031443;28;20105;-79
2022/10/10 10:11:38;;;;;;;5.47;2.55;;;;;;;;;;5031722;28;20483;-79
2022/10/10 10:14:03;;;;;;;5.72;2.95;;;;;;;;;;5031559;28;20017;-79
2022/10/10 10:16:37;;;;;;;8.82;2.45;;;;;;;;;;5033103;28;20033;-79
2022/10/10 10:19:03;;;;;;;6.90;2.55;;;;;;;;;;5015024;28;20025;-79
2022/10/10 10:21:29;;;;;;;11.05;2.58;;;;;;;;;;5014918;28;20029;-79
2022/10/10 10:23:58;;;;;;;7.05;2.45;;;;;;;;;;5032571;28;20030;-80
2022/10/10 10:26:42;;;;;;;5.35;2.22;;;;;;;;;;5031192;28;20120;-80
2022/10/10 10:29:29;;;;;;;7.50;2.35;;;;;;;;;;5032635;28;20028;-79
2022/10/10 10:32:17;;;;;;;14.35;2.50;;;;;;;;;;5031198;28;20029;-78
2022/10/10 10:34:57;;;;;;;9.05;2.83;;;;;;;;;;5031193;28;20067;-80
2022/10/10 10:37:25;;;;;;;9.15;2.10;;;;;;;;;;5032707;28;20469;-79
2022/10/10 10:40:12;;;;;;;8.65;2.58;;;;;;;;;;5032712;28;20056;-81
2022/10/10 10:43:01;;;;;;;4.07;2.50;;;;;;;;;;5030598;28;20056;-79
2022/10/10 10:45:34;;;;;;;5.30;2.30;;;;;;;;;;5030429;28;20387;-79
2022/10/10 10:48:03;;;;;;;6.30;2.22;;;;;;;;;;5031566;28;20075;-79
2022/10/10 10:50:49;;;;;;;3.63;2.10;;;;;;;;;;4990019;28;1180074;-78
2022/10/10 10:53:24;;;;;;;3.67;2.22;;;;;;;;;;5031058;28;20454;-79
2022/10/10 10:56:37;;;;;;;8.13;2.42;;;;;;;;;;5032938;28;20103;-80
2022/10/10 10:59:25;;;;;;;9.63;2.65;;;;;;;;;;5031414;28;20033;-79
2022/10/10 11:02:06;;;;;;;6.50;2.17;;;;;;;;;;5031658;28;20059;-79
2022/10/10 11:04:46;;;;;;;6.00;2.60;;;;;;;;;;5033079;28;20036;-80
2022/10/10 11:07:18;;;;;;;6.53;2.40;;;;;;;;;;5032036;28;20029;-80
2022/10/10 11:09:52;;;;;;;8.80;2.38;;;;;;;;;;5031587;28;20392;-80
2022/10/10 11:12:39;;;;;;;4.88;2.65;;;;;;;;;;5031719;28;20030;-80
2022/10/10 11:15:20;;;;;;;7.75;2.53;;;;;;;;;;5032921;28;20021;-80
2022/10/10 11:18:02;;;;;;;6.90;2.50;;;;;;;;;;5031679;28;20495;-80
2022/10/10 11:20:35;;;;;;;6.13;2.53;;;;;;;;;;5031515;28;20488;-81
2022/10/10 11:23:09;;;;;;;6.35;2.38;;;;;;;;;;5031341;28;20064;-80
2022/10/10 11:25:42;;;;;;;7.10;2.70;;;;;;;;;;5032702;28;20021;-80
2022/10/10 11:28:12;;;;;;;5.72;2.47;;;;;;;;;;5032876;28;20140;-80
2022/10/10 11:30:51;;;;;;;9.98;2.90;;;;;;;;;;5015169;28;20025;-80
2022/10/10 11:33:25;;;;;;;5.40;2.38;;;;;;;;;;5031224;28;20029;-80
2022/10/10 11:36:17;;;;;;;7.40;2.92;;;;;;;;;;5031286;28;20025;-79
2022/10/10 11:38:59;;;;;;;4.75;2.60;;;;;;;;;;5031368;28;20025;-79
2022/10/10 11:41:40;;;;;;;6.43;2.88;;;;;;;;;;5031537;28;20032;-80
2022/10/10 11:44:27;;;;;;;5.50;2.50;;;;;;;;;;5031093;28;20033;-79
2022/10/10 11:47:10;;;;;;;7.53;2.70;;;;;;;;;;5031492;28;20517;-80
2022/10/10 11:49:48;;;;;;;4.47;2.58;;;;;;;;;;5034034;28;20060;-79
2022/10/10 11:52:20;;;;;;;5.72;3.80;;;;;;;;;;5035095;28;20026;-79
2022/10/10 11:54:53;;;;;;;13.73;6.53;;;;;;;;;;5031421;28;20499;-79
2022/10/10 11:57:36;;;;;;;18.02;8.75;;;;;;;;;;5031120;28;20112;-78
2022/10/10 12:00:05;;;;;;;15.52;8.82;;;;;;;;;;5047587;28;20025;-79
2022/10/10 12:02:36;;;;;;;20.80;9.80;;;;;;;;;;5031210;28;20396;-78
2022/10/10 12:05:04;;;;;;;22.55;10.50;;;;;;;;;;5030978;28;20504;-78
2022/10/10 12:07:56;;;;;;;20.55;11.77;;;;;;;;;;5014596;28;20060;-78
2022/10/10 12:10:37;;;;;;;24.13;11.32;;;;;;;;;;5029798;28;20053;-78
2022/10/10 12:13:31;;;;;;;21.35;12.18;;;;;;;;;;5031647;28;20022;-78
2022/10/10 12:16:01;;;;;;;18.42;11.10;;;;;;;;;;5033005;28;20032;-79
2022/10/10 12:18:38;;;;;;;20.13;11.48;;;;;;;;;;5035967;28;20029;-80
2022/10/10 12:21:08;;;;;;;23.63;11.55;;;;;;;;;;5034857;28;20392;-79
2022/10/10 12:23:34;;;;;;;28.13;12.35;;;;;;;;;;5018231;28;20107;-79
2022/10/10 12:26:00;;;;;;;26.15;12.32;;;;;;;;;;5001825;28;20048;-80
2022/10/10 12:28:33;;;;;;;20.98;10.98;;;;;;;;;;5034952;28;20057;-80
2022/10/10 12:31:01;;;;;;;21.13;11.50;;;;;;;;;;5018056;28;20021;-79
2022/10/10 12:33:30;;;;;;;27.00;12.07;;;;;;;;;;5034322;28;20037;-78
2022/10/10 12:35:55;;;;;;;22.00;12.20;;;;;;;;;;5034275;28;20032;-78
2022/10/10 12:38:23;;;;;;;23.58;12.70;;;;;;;;;;5034815;28;20034;-78
2022/10/10 12:41:06;;;;;;;25.52;11.70;;;;;;;;;;5017814;28;20048;-77
2022/10/10 12:43:50;;;;;;;21.08;11.40;;;;;;;;;;5036083;28;20054;-79
2022/10/10 12:46:21;;;;;;;25.70;11.10;;;;;;;;;;5018537;28;20037;-79
2022/10/10 12:49:01;;;;;;;21.05;11.40;;;;;;;;;;5034222;28;20028;-79
2022/10/10 12:51:27;;;;;;;18.52;10.48;;;;;;;;;;5017508;28;20134;-79
2022/10/10 12:53:55;;;;;;;19.77;11.90;;;;;;;;;;5017171;28;20559;-79
2022/10/10 12:56:41;;;;;;;18.95;10.85;;;;;;;;;;5035605;28;20029;-80
2022/10/10 12:59:18;;;;;;;16.45;10.63;;;;;;;;;;5034605;28;20083;-80
2022/10/10 13:01:49;;;;;;;18.75;10.15;;;;;;;;;;5034801;28;20112;-80
2022/10/10 13:04:18;;;;;;;20.92;10.90;;;;;;;;;;5034338;28;20422;-80
2022/10/10 13:06:44;;;;;;;22.95;10.27;;;;;;;;;;5033900;28;20167;-80
2022/10/10 13:09:16;;;;;;;18.52;9.88;;;;;;;;;;5033902;28;20033;-80
2022/10/10 13:11:56;;;;;;;17.55;10.07;;;;;;;;;;5034081;28;20029;-80
2022/10/10 13:14:23;;;;;;;20.83;10.00;;;;;;;;;;5017110;28;20021;-80
2022/10/10 13:16:48;;;;;;;18.90;9.05;;;;;;;;;;5034003;28;20029;-79
2022/10/10 13:19:20;;;;;;;16.92;8.88;;;;;;;;;;5000749;28;20025;-80
2022/10/10 13:21:46;;;;;;;15.40;8.18;;;;;;;;;;5033510;28;20400;-79
2022/10/10 13:24:15;;;;;;;21.90;8.68;;;;;;;;;;5043027;28;20440;-79
2022/10/10 13:26:49;;;;;;;15.20;8.07;;;;;;;;;;5019958;28;20026;-79
2022/10/10 13:29:31;;;;;;;15.55;7.30;;;;;;;;;;5050474;28;20329;-79
2022/10/10 13:32:05;;;;;;;18.25;8.10;;;;;;;;;;5033705;28;20045;-78
2022/10/10 13:34:55;;;;;;;15.82;8.20;;;;;;;;;;5032999;28;20056;-78
2022/10/10 13:37:20;;;;;;;14.30;6.90;;;;;;;;;;5034344;28;20447;-79
2022/10/10 13:39:48;;;;;;;16.88;7.40;;;;;;;;;;5033363;28;20161;-79
2022/10/10 13:42:34;;;;;;;13.77;6.60;;;;;;;;;;5032797;28;20075;-79
2022/10/10 13:45:01;;;;;;;13.60;6.35;;;;;;;;;;5032846;28;20037;-79
2022/10/10 13:47:53;;;;;;;11.57;6.57;;;;;;;;;;5032938;28;20372;-79
2022/10/10 13:50:22;;;;;;;13.65;5.97;;;;;;;;;;5031757;28;20164;-79
2022/10/10 13:52:47;;;;;;;13.13;6.72;;;;;;;;;;5013006;28;20188;-77
2022/10/10 13:55:15;;;;;;;8.20;5.25;;;;;;;;;;5012843;28;20033;-79
2022/10/10 13:57:40;;;;;;;9.13;4.80;;;;;;;;;;4996783;28;20030;-79
2022/10/10 14:00:14;;;;;;;12.88;4.80;;;;;;;;;;5012367;28;20038;-79
2022/10/10 14:02:41;;;;;;;11.32;4.32;;;;;;;;;;5012300;28;20030;-80
2022/10/10 14:05:11;;;;;;;7.97;3.92;;;;;;;;;;5012792;28;20415;-79
2022/10/10 14:07:36;;;;;;;7.18;3.70;;;;;;;;;;5012696;28;20030;-79
2022/10/10 14:10:05;;;;;;;6.95;3.75;;;;;;;;;;5013192;28;20055;-79
2022/10/10 14:12:51;;;;;;;6.00;3.92;;;;;;;;;;5030167;28;20041;-78
2022/10/10 14:15:43;;;;;;;6.60;3.80;;;;;;;;;;5032740;28;20392;-78
2022/10/10 14:18:19;;;;;;;5.50;3.60;;;;;;;;;;5032782;28;20081;-78
2022/10/10 14:20:45;;;;;;;7.07;3.30;;;;;;;;;;5032158;28;20082;-78
2022/10/10 14:23:11;;;;;;;8.10;4.15;;;;;;;;;;5013582;28;20449;-79
2022/10/10 14:25:45;;;;;;;7.45;3.50;;;;;;;;;;5013727;28;20041;-79
2022/10/10 14:28:16;;;;;;;6.75;3.40;;;;;;;;;;4995747;28;20527;-79
2022/10/10 14:30:42;;;;;;;7.93;3.13;;;;;;;;;;4994435;28;20033;-79
2022/10/10 14:33:12;;;;;;;5.50;2.92;;;;;;;;;;5010689;28;20087;-79
2022/10/10 14:35:37;;;;;;;6.05;3.40;;;;;;;;;;5010887;28;20026;-79
2022/10/10 14:38:03;;;;;;;6.40;3.17;;;;;;;;;;5012881;28;20029;-80
2022/10/10 14:40:29;;;;;;;7.88;3.17;;;;;;;;;;5010337;28;20396;-78
2022/10/10 14:42:54;;;;;;;6.57;3.55;;;;;;;;;;5008323;28;20109;-80
2022/10/10 14:45:20;;;;;;;6.90;3.90;;;;;;;;;;5032338;28;20040;-79
2022/10/10 14:47:45;;;;;;;8.65;3.22;;;;;;;;;;5033629;28;20052;-80
2022/10/10 14:50:20;;;;;;;19.25;4.25;;;;;;;;;;5033559;28;20050;-80
2022/10/10 14:52:45;;;;;;;11.55;4.05;;;;;;;;;;5032162;28;20017;-80
2022/10/10 14:55:11;;;;;;;13.02;4.13;;;;;;;;;;5035215;28;20032;-80
2022/10/10 14:57:37;;;;;;;8.73;3.50;;;;;;;;;;5031661;28;20049;-80